sensor_id;sensor_type;location;lat;lon;timestamp;P1;durP1;ratioP1;P2;durP2;ratioP2
19205;SDS011;59358;52.134;5.596;2023-05-16T00:02:18;13.98;;;3.08;;
19205;SDS011;59358;52.134;5.596;2023-05-16T00:04:45;18.83;;;4.43;;
19205;SDS011;59358;52.134;5.596;2023-05-16T00:07:14;12.45;;;3.53;;
19205;SDS011;59358;52.134;5.596;2023-05-16T00:09:40;19.08;;;3.90;;
19205;SDS011;59358;52.134;5.596;2023-05-16T00:12:07;21.20;;;3.60;;
19205;SDS011;59358;52.134;5.596;2023-05-16T00:14:35;15.20;;;3.50;;
19205;SDS011;59358;52.134;5.596;2023-05-16T00:17:02;24.42;;;3.75;;
19205;SDS011;59358;52.134;5.596;2023-05-16T00:19:35;11.48;;;2.67;;
19205;SDS011;59358;52.134;5.596;2023-05-16T00:22:03;16.42;;;3.83;;
19205;SDS011;59358;52.134;5.596;2023-05-16T00:24:31;23.00;;;3.35;;
19205;SDS011;59358;52.134;5.596;2023-05-16T00:26:58;13.20;;;3.10;;
19205;SDS011;59358;52.134;5.596;2023-05-16T00:29:25;13.75;;;3.20;;
19205;SDS011;59358;52.134;5.596;2023-05-16T00:31:52;16.70;;;2.72;;
19205;SDS011;59358;52.134;5.596;2023-05-16T00:34:19;14.35;;;3.33;;
19205;SDS011;59358;52.134;5.596;2023-05-16T00:36:46;15.23;;;3.28;;
19205;SDS011;59358;52.134;5.596;2023-05-16T00:39:13;14.38;;;2.88;;
19205;SDS011;59358;52.134;5.596;2023-05-16T00:41:41;16.15;;;3.22;;
19205;SDS011;59358;52.134;5.596;2023-05-16T00:44:08;12.52;;;2.63;;
19205;SDS011;59358;52.134;5.596;2023-05-16T00:46:35;10.45;;;3.25;;
19205;SDS011;59358;52.134;5.596;2023-05-16T00:49:02;16.90;;;3.30;;
19205;SDS011;59358;52.134;5.596;2023-05-16T00:51:30;9.05;;;2.47;;
19205;SDS011;59358;52.134;5.596;2023-05-16T00:53:56;15.82;;;3.35;;
19205;SDS011;59358;52.134;5.596;2023-05-16T00:56:24;15.73;;;3.22;;
19205;SDS011;59358;52.134;5.596;2023-05-16T00:58:52;18.55;;;3.13;;
19205;SDS011;59358;52.134;5.596;2023-05-16T01:01:19;11.40;;;3.03;;
19205;SDS011;59358;52.134;5.596;2023-05-16T01:03:48;18.67;;;3.47;;
19205;SDS011;59358;52.134;5.596;2023-05-16T01:06:15;20.50;;;3.53;;
19205;SDS011;59358;52.134;5.596;2023-05-16T01:08:42;16.00;;;2.67;;
19205;SDS011;59358;52.134;5.596;2023-05-16T01:11:11;11.60;;;2.65;;
19205;SDS011;59358;52.134;5.596;2023-05-16T01:13:46;9.68;;;2.60;;
19205;SDS011;59358;52.134;5.596;2023-05-16T01:16:25;15.23;;;2.97;;
19205;SDS011;59358;52.134;5.596;2023-05-16T01:18:58;13.13;;;3.70;;
19205;SDS011;59358;52.134;5.596;2023-05-16T01:21:37;15.98;;;3.13;;
19205;SDS011;59358;52.134;5.596;2023-05-16T01:24:12;18.50;;;3.30;;
19205;SDS011;59358;52.134;5.596;2023-05-16T01:26:47;18.60;;;2.60;;
19205;SDS011;59358;52.134;5.596;2023-05-16T01:29:17;12.07;;;2.80;;
19205;SDS011;59358;52.134;5.596;2023-05-16T01:31:44;11.38;;;3.25;;
19205;SDS011;59358;52.134;5.596;2023-05-16T01:34:11;16.05;;;2.90;;
19205;SDS011;59358;52.134;5.596;2023-05-16T01:36:40;13.45;;;2.83;;
19205;SDS011;59358;52.134;5.596;2023-05-16T01:39:14;19.58;;;3.38;;
19205;SDS011;59358;52.134;5.596;2023-05-16T01:41:49;12.02;;;2.85;;
19205;SDS011;59358;52.134;5.596;2023-05-16T01:44:25;14.75;;;2.90;;
19205;SDS011;59358;52.134;5.596;2023-05-16T01:46:58;8.73;;;2.45;;
19205;SDS011;59358;52.134;5.596;2023-05-16T01:49:30;12.70;;;2.40;;
19205;SDS011;59358;52.134;5.596;2023-05-16T01:52:03;11.48;;;2.55;;
19205;SDS011;59358;52.134;5.596;2023-05-16T01:54:35;15.00;;;3.08;;
19205;SDS011;59358;52.134;5.596;2023-05-16T01:57:06;11.57;;;2.83;;
19205;SDS011;59358;52.134;5.596;2023-05-16T01:59:34;10.18;;;2.33;;
19205;SDS011;59358;52.134;5.596;2023-05-16T02:02:02;13.27;;;2.85;;
19205;SDS011;59358;52.134;5.596;2023-05-16T02:04:29;16.42;;;3.03;;
19205;SDS011;59358;52.134;5.596;2023-05-16T02:06:56;17.73;;;4.55;;
19205;SDS011;59358;52.134;5.596;2023-05-16T02:09:24;10.88;;;3.28;;
19205;SDS011;59358;52.134;5.596;2023-05-16T02:11:51;21.83;;;4.10;;
19205;SDS011;59358;52.134;5.596;2023-05-16T02:14:19;14.20;;;2.80;;
19205;SDS011;59358;52.134;5.596;2023-05-16T02:16:46;8.43;;;2.60;;
19205;SDS011;59358;52.134;5.596;2023-05-16T02:19:13;18.45;;;3.00;;
19205;SDS011;59358;52.134;5.596;2023-05-16T02:21:40;15.75;;;2.67;;
19205;SDS011;59358;52.134;5.596;2023-05-16T02:24:07;14.15;;;2.95;;
19205;SDS011;59358;52.134;5.596;2023-05-16T02:26:34;15.38;;;2.65;;
19205;SDS011;59358;52.134;5.596;2023-05-16T02:29:00;14.57;;;3.13;;
19205;SDS011;59358;52.134;5.596;2023-05-16T02:31:29;12.73;;;3.17;;
19205;SDS011;59358;52.134;5.596;2023-05-16T02:33:58;11.55;;;2.85;;
19205;SDS011;59358;52.134;5.596;2023-05-16T02:36:25;23.10;;;2.92;;
19205;SDS011;59358;52.134;5.596;2023-05-16T02:38:52;18.42;;;3.40;;
19205;SDS011;59358;52.134;5.596;2023-05-16T02:41:19;15.07;;;2.63;;
19205;SDS011;59358;52.134;5.596;2023-05-16T02:43:47;10.23;;;2.55;;
19205;SDS011;59358;52.134;5.596;2023-05-16T02:46:20;18.48;;;3.38;;
19205;SDS011;59358;52.134;5.596;2023-05-16T02:48:49;16.92;;;2.95;;
19205;SDS011;59358;52.134;5.596;2023-05-16T02:51:16;9.57;;;2.50;;
19205;SDS011;59358;52.134;5.596;2023-05-16T02:53:44;14.25;;;3.40;;
19205;SDS011;59358;52.134;5.596;2023-05-16T02:56:10;13.60;;;2.92;;
19205;SDS011;59358;52.134;5.596;2023-05-16T02:58:37;17.63;;;3.75;;
19205;SDS011;59358;52.134;5.596;2023-05-16T03:01:06;22.48;;;2.88;;
19205;SDS011;59358;52.134;5.596;2023-05-16T03:03:34;15.25;;;3.42;;
19205;SDS011;59358;52.134;5.596;2023-05-16T03:06:02;16.50;;;2.65;;
19205;SDS011;59358;52.134;5.596;2023-05-16T03:08:30;11.30;;;2.45;;
19205;SDS011;59358;52.134;5.596;2023-05-16T03:10:57;13.77;;;2.92;;
19205;SDS011;59358;52.134;5.596;2023-05-16T03:13:24;17.20;;;3.53;;
19205;SDS011;59358;52.134;5.596;2023-05-16T03:15:51;19.55;;;3.28;;
19205;SDS011;59358;52.134;5.596;2023-05-16T03:18:18;12.20;;;2.80;;
19205;SDS011;59358;52.134;5.596;2023-05-16T03:20:45;15.70;;;3.30;;
19205;SDS011;59358;52.134;5.596;2023-05-16T03:23:13;10.82;;;2.50;;
19205;SDS011;59358;52.134;5.596;2023-05-16T03:25:40;11.02;;;2.45;;
19205;SDS011;59358;52.134;5.596;2023-05-16T03:28:07;16.98;;;2.90;;
19205;SDS011;59358;52.134;5.596;2023-05-16T03:30:34;11.90;;;3.03;;
19205;SDS011;59358;52.134;5.596;2023-05-16T03:33:01;16.77;;;3.25;;
19205;SDS011;59358;52.134;5.596;2023-05-16T03:35:28;16.35;;;3.00;;
19205;SDS011;59358;52.134;5.596;2023-05-16T03:37:56;12.05;;;2.67;;
19205;SDS011;59358;52.134;5.596;2023-05-16T03:40:24;15.75;;;3.15;;
19205;SDS011;59358;52.134;5.596;2023-05-16T03:42:51;9.57;;;2.78;;
19205;SDS011;59358;52.134;5.596;2023-05-16T03:45:17;12.20;;;2.85;;
19205;SDS011;59358;52.134;5.596;2023-05-16T03:47:44;11.75;;;2.83;;
19205;SDS011;59358;52.134;5.596;2023-05-16T03:50:13;16.58;;;3.10;;
19205;SDS011;59358;52.134;5.596;2023-05-16T03:52:40;13.15;;;3.08;;
19205;SDS011;59358;52.134;5.596;2023-05-16T03:55:07;16.83;;;3.45;;
19205;SDS011;59358;52.134;5.596;2023-05-16T03:57:35;10.52;;;2.88;;
19205;SDS011;59358;52.134;5.596;2023-05-16T04:00:03;14.60;;;2.38;;
19205;SDS011;59358;52.134;5.596;2023-05-16T04:02:32;16.92;;;2.80;;
19205;SDS011;59358;52.134;5.596;2023-05-16T04:04:58;12.20;;;2.70;;
19205;SDS011;59358;52.134;5.596;2023-05-16T04:07:25;10.65;;;2.85;;
19205;SDS011;59358;52.134;5.596;2023-05-16T04:09:52;19.33;;;4.05;;
19205;SDS011;59358;52.134;5.596;2023-05-16T04:12:19;6.80;;;2.70;;
19205;SDS011;59358;52.134;5.596;2023-05-16T04:14:48;12.23;;;2.72;;
19205;SDS011;59358;52.134;5.596;2023-05-16T04:17:15;15.68;;;2.72;;
19205;SDS011;59358;52.134;5.596;2023-05-16T04:19:42;12.45;;;2.88;;
19205;SDS011;59358;52.134;5.596;2023-05-16T04:22:09;17.65;;;3.08;;
19205;SDS011;59358;52.134;5.596;2023-05-16T04:24:36;7.60;;;2.47;;
19205;SDS011;59358;52.134;5.596;2023-05-16T04:27:03;11.98;;;3.70;;
19205;SDS011;59358;52.134;5.596;2023-05-16T04:29:32;9.43;;;2.90;;
19205;SDS011;59358;52.134;5.596;2023-05-16T04:32:01;11.85;;;2.92;;
19205;SDS011;59358;52.134;5.596;2023-05-16T04:34:27;12.00;;;2.65;;
19205;SDS011;59358;52.134;5.596;2023-05-16T04:36:54;13.25;;;3.03;;
19205;SDS011;59358;52.134;5.596;2023-05-16T04:39:21;18.75;;;3.25;;
19205;SDS011;59358;52.134;5.596;2023-05-16T04:41:48;13.27;;;3.40;;
19205;SDS011;59358;52.134;5.596;2023-05-16T04:44:15;15.15;;;3.30;;
19205;SDS011;59358;52.134;5.596;2023-05-16T04:46:42;15.70;;;3.60;;
19205;SDS011;59358;52.134;5.596;2023-05-16T04:49:10;17.35;;;3.28;;
19205;SDS011;59358;52.134;5.596;2023-05-16T04:51:37;10.68;;;3.10;;
19205;SDS011;59358;52.134;5.596;2023-05-16T04:54:04;11.95;;;2.90;;
19205;SDS011;59358;52.134;5.596;2023-05-16T04:56:32;16.38;;;2.85;;
19205;SDS011;59358;52.134;5.596;2023-05-16T04:58:59;10.60;;;2.63;;
19205;SDS011;59358;52.134;5.596;2023-05-16T05:01:26;13.52;;;3.30;;
19205;SDS011;59358;52.134;5.596;2023-05-16T05:03:53;14.40;;;3.53;;
19205;SDS011;59358;52.134;5.596;2023-05-16T05:06:21;9.27;;;2.53;;
19205;SDS011;59358;52.134;5.596;2023-05-16T05:08:48;9.20;;;3.35;;
19205;SDS011;59358;52.134;5.596;2023-05-16T05:11:15;14.27;;;3.05;;
19205;SDS011;59358;52.134;5.596;2023-05-16T05:13:41;15.73;;;2.97;;
19205;SDS011;59358;52.134;5.596;2023-05-16T05:16:08;13.13;;;2.83;;
19205;SDS011;59358;52.134;5.596;2023-05-16T05:18:35;14.02;;;2.78;;
19205;SDS011;59358;52.134;5.596;2023-05-16T05:21:02;8.38;;;2.35;;
19205;SDS011;59358;52.134;5.596;2023-05-16T05:23:30;16.35;;;3.30;;
19205;SDS011;59358;52.134;5.596;2023-05-16T05:25:58;10.73;;;3.40;;
19205;SDS011;59358;52.134;5.596;2023-05-16T05:28:26;21.70;;;3.45;;
19205;SDS011;59358;52.134;5.596;2023-05-16T05:30:53;11.80;;;3.13;;
19205;SDS011;59358;52.134;5.596;2023-05-16T05:33:24;16.92;;;3.45;;
19205;SDS011;59358;52.134;5.596;2023-05-16T05:35:52;18.05;;;3.38;;
19205;SDS011;59358;52.134;5.596;2023-05-16T05:38:19;14.98;;;2.67;;
19205;SDS011;59358;52.134;5.596;2023-05-16T05:40:47;10.95;;;2.70;;
19205;SDS011;59358;52.134;5.596;2023-05-16T05:43:14;13.85;;;2.53;;
19205;SDS011;59358;52.134;5.596;2023-05-16T05:45:41;12.63;;;2.40;;
19205;SDS011;59358;52.134;5.596;2023-05-16T05:48:08;14.57;;;2.15;;
19205;SDS011;59358;52.134;5.596;2023-05-16T05:50:35;10.48;;;2.13;;
19205;SDS011;59358;52.134;5.596;2023-05-16T05:53:02;10.55;;;2.25;;
19205;SDS011;59358;52.134;5.596;2023-05-16T05:55:29;9.90;;;2.20;;
19205;SDS011;59358;52.134;5.596;2023-05-16T05:57:57;11.65;;;1.80;;
19205;SDS011;59358;52.134;5.596;2023-05-16T06:00:24;6.47;;;2.00;;
19205;SDS011;59358;52.134;5.596;2023-05-16T06:02:50;9.77;;;2.10;;
19205;SDS011;59358;52.134;5.596;2023-05-16T06:05:17;10.93;;;2.00;;
19205;SDS011;59358;52.134;5.596;2023-05-16T06:07:44;13.95;;;2.60;;
19205;SDS011;59358;52.134;5.596;2023-05-16T06:10:11;10.43;;;2.30;;
19205;SDS011;59358;52.134;5.596;2023-05-16T06:12:37;10.60;;;2.22;;
19205;SDS011;59358;52.134;5.596;2023-05-16T06:15:06;10.27;;;2.22;;
19205;SDS011;59358;52.134;5.596;2023-05-16T06:17:34;10.07;;;2.30;;
19205;SDS011;59358;52.134;5.596;2023-05-16T06:20:01;10.23;;;1.85;;
19205;SDS011;59358;52.134;5.596;2023-05-16T06:22:28;9.68;;;2.38;;
19205;SDS011;59358;52.134;5.596;2023-05-16T06:24:54;16.52;;;2.20;;
19205;SDS011;59358;52.134;5.596;2023-05-16T06:27:21;13.05;;;2.13;;
19205;SDS011;59358;52.134;5.596;2023-05-16T06:29:48;7.97;;;2.08;;
19205;SDS011;59358;52.134;5.596;2023-05-16T06:32:16;12.38;;;2.65;;
19205;SDS011;59358;52.134;5.596;2023-05-16T06:34:43;12.05;;;2.33;;
19205;SDS011;59358;52.134;5.596;2023-05-16T06:37:10;11.60;;;2.00;;
19205;SDS011;59358;52.134;5.596;2023-05-16T06:39:37;10.77;;;1.70;;
19205;SDS011;59358;52.134;5.596;2023-05-16T06:42:03;10.25;;;2.20;;
19205;SDS011;59358;52.134;5.596;2023-05-16T06:44:31;11.32;;;2.15;;
19205;SDS011;59358;52.134;5.596;2023-05-16T06:46:57;7.85;;;2.10;;
19205;SDS011;59358;52.134;5.596;2023-05-16T06:49:25;10.43;;;2.15;;
19205;SDS011;59358;52.134;5.596;2023-05-16T06:51:52;8.98;;;2.10;;
19205;SDS011;59358;52.134;5.596;2023-05-16T06:54:19;11.45;;;1.92;;
19205;SDS011;59358;52.134;5.596;2023-05-16T06:56:46;7.05;;;1.63;;
19205;SDS011;59358;52.134;5.596;2023-05-16T06:59:12;10.15;;;1.70;;
19205;SDS011;59358;52.134;5.596;2023-05-16T07:01:39;7.53;;;1.70;;
19205;SDS011;59358;52.134;5.596;2023-05-16T07:04:06;9.30;;;2.10;;
19205;SDS011;59358;52.134;5.596;2023-05-16T07:06:34;7.50;;;1.55;;
19205;SDS011;59358;52.134;5.596;2023-05-16T07:09:01;6.78;;;1.60;;
19205;SDS011;59358;52.134;5.596;2023-05-16T07:11:28;8.55;;;2.30;;
19205;SDS011;59358;52.134;5.596;2023-05-16T07:13:55;9.82;;;2.17;;
19205;SDS011;59358;52.134;5.596;2023-05-16T07:16:22;9.30;;;2.08;;
19205;SDS011;59358;52.134;5.596;2023-05-16T07:18:52;9.82;;;1.60;;
19205;SDS011;59358;52.134;5.596;2023-05-16T07:21:19;5.07;;;1.40;;
19205;SDS011;59358;52.134;5.596;2023-05-16T07:23:47;6.45;;;1.50;;
19205;SDS011;59358;52.134;5.596;2023-05-16T07:26:14;5.93;;;1.88;;
19205;SDS011;59358;52.134;5.596;2023-05-16T07:28:40;8.15;;;1.80;;
19205;SDS011;59358;52.134;5.596;2023-05-16T07:31:07;8.25;;;1.77;;
19205;SDS011;59358;52.134;5.596;2023-05-16T07:33:34;7.60;;;1.75;;
19205;SDS011;59358;52.134;5.596;2023-05-16T07:36:01;8.45;;;1.58;;
19205;SDS011;59358;52.134;5.596;2023-05-16T07:38:28;5.50;;;1.60;;
19205;SDS011;59358;52.134;5.596;2023-05-16T07:40:56;7.82;;;2.00;;
19205;SDS011;59358;52.134;5.596;2023-05-16T07:43:23;8.40;;;2.08;;
19205;SDS011;59358;52.134;5.596;2023-05-16T07:45:50;6.28;;;1.33;;
19205;SDS011;59358;52.134;5.596;2023-05-16T07:48:17;6.72;;;1.90;;
19205;SDS011;59358;52.134;5.596;2023-05-16T07:50:44;8.10;;;1.52;;
19205;SDS011;59358;52.134;5.596;2023-05-16T07:53:11;6.70;;;1.45;;
19205;SDS011;59358;52.134;5.596;2023-05-16T07:55:37;7.38;;;1.35;;
19205;SDS011;59358;52.134;5.596;2023-05-16T07:58:06;7.22;;;1.70;;
19205;SDS011;59358;52.134;5.596;2023-05-16T08:00:32;4.97;;;1.10;;
19205;SDS011;59358;52.134;5.596;2023-05-16T08:02:59;4.88;;;1.25;;
19205;SDS011;59358;52.134;5.596;2023-05-16T08:05:26;2.40;;;0.80;;
19205;SDS011;59358;52.134;5.596;2023-05-16T08:07:53;3.45;;;0.77;;
19205;SDS011;59358;52.134;5.596;2023-05-16T08:10:20;3.38;;;0.80;;
19205;SDS011;59358;52.134;5.596;2023-05-16T08:12:48;5.00;;;0.82;;
19205;SDS011;59358;52.134;5.596;2023-05-16T08:15:16;3.15;;;0.80;;
19205;SDS011;59358;52.134;5.596;2023-05-16T08:17:43;2.65;;;1.02;;
19205;SDS011;59358;52.134;5.596;2023-05-16T08:20:10;5.00;;;1.20;;
19205;SDS011;59358;52.134;5.596;2023-05-16T08:22:38;3.63;;;1.15;;
19205;SDS011;59358;52.134;5.596;2023-05-16T08:25:05;3.00;;;0.90;;
19205;SDS011;59358;52.134;5.596;2023-05-16T08:27:33;7.32;;;1.80;;
19205;SDS011;59358;52.134;5.596;2023-05-16T08:30:00;7.75;;;1.80;;
19205;SDS011;59358;52.134;5.596;2023-05-16T08:32:28;3.80;;;1.25;;
19205;SDS011;59358;52.134;5.596;2023-05-16T08:34:55;10.13;;;1.70;;
19205;SDS011;59358;52.134;5.596;2023-05-16T08:37:22;4.35;;;1.23;;
19205;SDS011;59358;52.134;5.596;2023-05-16T08:39:49;6.47;;;1.55;;
19205;SDS011;59358;52.134;5.596;2023-05-16T08:42:16;6.80;;;1.63;;
19205;SDS011;59358;52.134;5.596;2023-05-16T08:44:43;5.85;;;1.45;;
19205;SDS011;59358;52.134;5.596;2023-05-16T08:47:10;6.05;;;1.25;;
19205;SDS011;59358;52.134;5.596;2023-05-16T08:49:40;10.05;;;1.40;;
19205;SDS011;59358;52.134;5.596;2023-05-16T08:52:09;6.47;;;1.50;;
19205;SDS011;59358;52.134;5.596;2023-05-16T08:54:36;5.68;;;1.75;;
19205;SDS011;59358;52.134;5.596;2023-05-16T08:57:04;5.97;;;1.27;;
19205;SDS011;59358;52.134;5.596;2023-05-16T08:59:34;4.95;;;1.52;;
19205;SDS011;59358;52.134;5.596;2023-05-16T09:02:01;7.10;;;1.20;;
19205;SDS011;59358;52.134;5.596;2023-05-16T09:04:28;4.07;;;1.30;;
19205;SDS011;59358;52.134;5.596;2023-05-16T09:06:57;8.43;;;1.30;;
19205;SDS011;59358;52.134;5.596;2023-05-16T09:09:24;8.50;;;1.38;;
19205;SDS011;59358;52.134;5.596;2023-05-16T09:11:51;5.93;;;1.10;;
19205;SDS011;59358;52.134;5.596;2023-05-16T09:14:19;2.70;;;1.33;;
19205;SDS011;59358;52.134;5.596;2023-05-16T09:16:52;5.53;;;1.25;;
19205;SDS011;59358;52.134;5.596;2023-05-16T09:19:31;6.60;;;1.48;;
19205;SDS011;59358;52.134;5.596;2023-05-16T09:22:04;5.60;;;1.20;;
19205;SDS011;59358;52.134;5.596;2023-05-16T09:24:32;4.30;;;1.10;;
19205;SDS011;59358;52.134;5.596;2023-05-16T09:27:06;3.95;;;1.10;;
19205;SDS011;59358;52.134;5.596;2023-05-16T09:29:33;6.63;;;1.20;;
19205;SDS011;59358;52.134;5.596;2023-05-16T09:32:03;6.03;;;1.40;;
19205;SDS011;59358;52.134;5.596;2023-05-16T09:34:36;5.25;;;1.13;;
19205;SDS011;59358;52.134;5.596;2023-05-16T09:37:06;5.55;;;1.15;;
19205;SDS011;59358;52.134;5.596;2023-05-16T09:39:35;5.07;;;1.38;;
19205;SDS011;59358;52.134;5.596;2023-05-16T09:42:01;4.95;;;1.30;;
19205;SDS011;59358;52.134;5.596;2023-05-16T09:44:30;8.25;;;1.48;;
19205;SDS011;59358;52.134;5.596;2023-05-16T09:46:57;5.50;;;1.60;;
19205;SDS011;59358;52.134;5.596;2023-05-16T09:49:25;3.85;;;1.20;;
19205;SDS011;59358;52.134;5.596;2023-05-16T09:51:52;7.63;;;1.23;;
19205;SDS011;59358;52.134;5.596;2023-05-16T09:54:29;4.65;;;1.33;;
19205;SDS011;59358;52.134;5.596;2023-05-16T09:56:57;7.22;;;1.40;;
19205;SDS011;59358;52.134;5.596;2023-05-16T09:59:24;3.33;;;1.08;;
19205;SDS011;59358;52.134;5.596;2023-05-16T10:01:53;4.68;;;1.30;;
19205;SDS011;59358;52.134;5.596;2023-05-16T10:04:21;4.50;;;1.40;;
19205;SDS011;59358;52.134;5.596;2023-05-16T10:06:49;9.38;;;1.38;;
19205;SDS011;59358;52.134;5.596;2023-05-16T10:09:16;4.20;;;1.10;;
19205;SDS011;59358;52.134;5.596;2023-05-16T10:11:45;8.38;;;1.25;;
19205;SDS011;59358;52.134;5.596;2023-05-16T10:14:15;5.32;;;1.13;;
19205;SDS011;59358;52.134;5.596;2023-05-16T10:16:45;5.13;;;0.98;;
19205;SDS011;59358;52.134;5.596;2023-05-16T10:19:14;5.50;;;1.17;;
19205;SDS011;59358;52.134;5.596;2023-05-16T10:21:43;7.13;;;1.50;;
19205;SDS011;59358;52.134;5.596;2023-05-16T10:24:15;10.13;;;1.70;;
19205;SDS011;59358;52.134;5.596;2023-05-16T10:26:48;5.53;;;1.33;;
19205;SDS011;59358;52.134;5.596;2023-05-16T10:29:17;6.97;;;1.63;;
19205;SDS011;59358;52.134;5.596;2023-05-16T10:31:45;5.95;;;1.50;;
19205;SDS011;59358;52.134;5.596;2023-05-16T10:34:13;11.48;;;1.95;;
19205;SDS011;59358;52.134;5.596;2023-05-16T10:36:41;7.68;;;1.55;;
19205;SDS011;59358;52.134;5.596;2023-05-16T10:39:09;5.97;;;1.33;;
19205;SDS011;59358;52.134;5.596;2023-05-16T10:41:37;8.07;;;1.77;;
19205;SDS011;59358;52.134;5.596;2023-05-16T10:44:08;6.97;;;1.30;;
19205;SDS011;59358;52.134;5.596;2023-05-16T10:46:40;8.18;;;1.75;;
19205;SDS011;59358;52.134;5.596;2023-05-16T10:49:18;8.70;;;1.83;;
19205;SDS011;59358;52.134;5.596;2023-05-16T10:51:45;3.90;;;1.30;;
19205;SDS011;59358;52.134;5.596;2023-05-16T10:54:32;9.10;;;1.48;;
19205;SDS011;59358;52.134;5.596;2023-05-16T10:57:03;5.20;;;1.50;;
19205;SDS011;59358;52.134;5.596;2023-05-16T10:59:40;4.45;;;1.30;;
19205;SDS011;59358;52.134;5.596;2023-05-16T11:02:21;5.15;;;1.45;;
19205;SDS011;59358;52.134;5.596;2023-05-16T11:04:49;5.03;;;1.30;;
19205;SDS011;59358;52.134;5.596;2023-05-16T11:07:17;5.78;;;1.98;;
19205;SDS011;59358;52.134;5.596;2023-05-16T11:09:51;3.72;;;1.40;;
19205;SDS011;59358;52.134;5.596;2023-05-16T11:12:34;6.05;;;1.50;;
19205;SDS011;59358;52.134;5.596;2023-05-16T11:15:20;4.60;;;1.60;;
19205;SDS011;59358;52.134;5.596;2023-05-16T11:18:02;5.53;;;1.60;;
19205;SDS011;59358;52.134;5.596;2023-05-16T11:20:33;7.03;;;1.52;;
19205;SDS011;59358;52.134;5.596;2023-05-16T11:23:22;4.90;;;1.20;;
19205;SDS011;59358;52.134;5.596;2023-05-16T11:25:51;5.78;;;1.65;;
19205;SDS011;59358;52.134;5.596;2023-05-16T11:28:20;5.82;;;1.48;;
19205;SDS011;59358;52.134;5.596;2023-05-16T11:30:50;4.18;;;1.55;;
19205;SDS011;59358;52.134;5.596;2023-05-16T11:33:20;4.55;;;1.65;;
19205;SDS011;59358;52.134;5.596;2023-05-16T11:36:01;2.80;;;1.13;;
19205;SDS011;59358;52.134;5.596;2023-05-16T11:38:29;8.50;;;1.60;;
19205;SDS011;59358;52.134;5.596;2023-05-16T11:41:00;5.35;;;1.70;;
19205;SDS011;59358;52.134;5.596;2023-05-16T11:43:35;6.82;;;1.60;;
19205;SDS011;59358;52.134;5.596;2023-05-16T11:46:05;6.82;;;1.50;;
19205;SDS011;59358;52.134;5.596;2023-05-16T11:48:32;3.30;;;1.13;;
19205;SDS011;59358;52.134;5.596;2023-05-16T11:51:00;6.10;;;1.60;;
19205;SDS011;59358;52.134;5.596;2023-05-16T11:53:27;5.07;;;1.55;;
19205;SDS011;59358;52.134;5.596;2023-05-16T11:55:54;4.97;;;1.25;;
19205;SDS011;59358;52.134;5.596;2023-05-16T11:58:24;4.57;;;1.23;;
19205;SDS011;59358;52.134;5.596;2023-05-16T12:00:51;6.47;;;1.33;;
19205;SDS011;59358;52.134;5.596;2023-05-16T12:03:19;4.60;;;1.40;;
19205;SDS011;59358;52.134;5.596;2023-05-16T12:05:51;6.78;;;1.60;;
19205;SDS011;59358;52.134;5.596;2023-05-16T12:08:19;3.55;;;1.60;;
19205;SDS011;59358;52.134;5.596;2023-05-16T12:10:47;6.32;;;1.67;;
19205;SDS011;59358;52.134;5.596;2023-05-16T12:13:15;4.80;;;1.40;;
19205;SDS011;59358;52.134;5.596;2023-05-16T12:15:42;3.55;;;0.93;;
19205;SDS011;59358;52.134;5.596;2023-05-16T12:18:09;4.32;;;1.13;;
19205;SDS011;59358;52.134;5.596;2023-05-16T12:20:38;3.35;;;1.45;;
19205;SDS011;59358;52.134;5.596;2023-05-16T12:23:09;4.93;;;1.20;;
19205;SDS011;59358;52.134;5.596;2023-05-16T12:25:37;6.13;;;1.50;;
19205;SDS011;59358;52.134;5.596;2023-05-16T12:28:08;7.72;;;1.85;;
19205;SDS011;59358;52.134;5.596;2023-05-16T12:30:38;6.50;;;1.42;;
19205;SDS011;59358;52.134;5.596;2023-05-16T12:33:07;7.50;;;1.27;;
19205;SDS011;59358;52.134;5.596;2023-05-16T12:35:37;4.53;;;1.10;;
19205;SDS011;59358;52.134;5.596;2023-05-16T12:38:06;6.60;;;1.30;;
19205;SDS011;59358;52.134;5.596;2023-05-16T12:40:34;8.02;;;1.95;;
19205;SDS011;59358;52.134;5.596;2023-05-16T12:43:03;4.70;;;1.10;;
19205;SDS011;59358;52.134;5.596;2023-05-16T12:45:31;4.70;;;1.40;;
19205;SDS011;59358;52.134;5.596;2023-05-16T12:48:02;5.15;;;1.40;;
19205;SDS011;59358;52.134;5.596;2023-05-16T12:50:31;5.88;;;1.48;;
19205;SDS011;59358;52.134;5.596;2023-05-16T12:53:00;7.40;;;1.27;;
19205;SDS011;59358;52.134;5.596;2023-05-16T12:55:27;6.43;;;1.30;;
19205;SDS011;59358;52.134;5.596;2023-05-16T12:57:54;4.40;;;1.20;;
19205;SDS011;59358;52.134;5.596;2023-05-16T13:00:22;4.65;;;1.48;;
19205;SDS011;59358;52.134;5.596;2023-05-16T13:02:49;5.97;;;1.45;;
19205;SDS011;59358;52.134;5.596;2023-05-16T13:05:16;6.32;;;1.90;;
19205;SDS011;59358;52.134;5.596;2023-05-16T13:07:44;4.70;;;1.48;;
19205;SDS011;59358;52.134;5.596;2023-05-16T13:10:12;7.25;;;1.48;;
19205;SDS011;59358;52.134;5.596;2023-05-16T13:12:39;4.97;;;1.85;;
19205;SDS011;59358;52.134;5.596;2023-05-16T13:15:07;5.22;;;1.50;;
19205;SDS011;59358;52.134;5.596;2023-05-16T13:17:35;9.57;;;1.63;;
19205;SDS011;59358;52.134;5.596;2023-05-16T13:20:03;11.35;;;1.80;;
19205;SDS011;59358;52.134;5.596;2023-05-16T13:22:33;6.13;;;1.88;;
19205;SDS011;59358;52.134;5.596;2023-05-16T13:25:00;7.38;;;1.70;;
19205;SDS011;59358;52.134;5.596;2023-05-16T13:27:29;11.10;;;1.50;;
19205;SDS011;59358;52.134;5.596;2023-05-16T13:29:56;5.63;;;1.52;;
19205;SDS011;59358;52.134;5.596;2023-05-16T13:32:23;5.60;;;1.60;;
19205;SDS011;59358;52.134;5.596;2023-05-16T13:34:50;10.02;;;1.85;;
19205;SDS011;59358;52.134;5.596;2023-05-16T13:37:17;8.32;;;1.70;;
19205;SDS011;59358;52.134;5.596;2023-05-16T13:39:44;6.90;;;1.80;;
19205;SDS011;59358;52.134;5.596;2023-05-16T13:42:11;8.98;;;1.98;;
19205;SDS011;59358;52.134;5.596;2023-05-16T13:44:39;9.43;;;2.30;;
19205;SDS011;59358;52.134;5.596;2023-05-16T13:47:06;3.80;;;1.67;;
19205;SDS011;59358;52.134;5.596;2023-05-16T13:49:33;6.32;;;1.73;;
19205;SDS011;59358;52.134;5.596;2023-05-16T13:52:00;8.70;;;1.77;;
19205;SDS011;59358;52.134;5.596;2023-05-16T13:54:27;5.10;;;1.60;;
19205;SDS011;59358;52.134;5.596;2023-05-16T13:56:53;8.80;;;1.73;;
19205;SDS011;59358;52.134;5.596;2023-05-16T13:59:21;7.68;;;2.30;;
19205;SDS011;59358;52.134;5.596;2023-05-16T14:01:49;6.13;;;1.67;;
19205;SDS011;59358;52.134;5.596;2023-05-16T14:04:16;6.60;;;1.67;;
19205;SDS011;59358;52.134;5.596;2023-05-16T14:06:43;5.40;;;1.60;;
19205;SDS011;59358;52.134;5.596;2023-05-16T14:09:10;6.40;;;1.80;;
19205;SDS011;59358;52.134;5.596;2023-05-16T14:11:37;7.97;;;1.88;;
19205;SDS011;59358;52.134;5.596;2023-05-16T14:14:04;8.75;;;1.70;;
19205;SDS011;59358;52.134;5.596;2023-05-16T14:16:30;5.85;;;1.92;;
19205;SDS011;59358;52.134;5.596;2023-05-16T14:18:59;9.27;;;2.30;;
19205;SDS011;59358;52.134;5.596;2023-05-16T14:21:25;7.35;;;1.77;;
19205;SDS011;59358;52.134;5.596;2023-05-16T14:23:52;8.02;;;2.03;;
19205;SDS011;59358;52.134;5.596;2023-05-16T14:26:19;5.22;;;1.58;;
19205;SDS011;59358;52.134;5.596;2023-05-16T14:28:49;4.63;;;1.50;;
19205;SDS011;59358;52.134;5.596;2023-05-16T14:31:16;4.85;;;1.60;;
19205;SDS011;59358;52.134;5.596;2023-05-16T14:33:43;6.22;;;1.50;;
19205;SDS011;59358;52.134;5.596;2023-05-16T14:36:11;5.45;;;1.50;;
19205;SDS011;59358;52.134;5.596;2023-05-16T14:38:38;6.97;;;1.92;;
19205;SDS011;59358;52.134;5.596;2023-05-16T14:41:05;7.28;;;1.88;;
19205;SDS011;59358;52.134;5.596;2023-05-16T14:43:32;7.18;;;1.73;;
19205;SDS011;59358;52.134;5.596;2023-05-16T14:45:59;8.40;;;1.55;;
19205;SDS011;59358;52.134;5.596;2023-05-16T14:48:26;5.53;;;1.50;;
19205;SDS011;59358;52.134;5.596;2023-05-16T14:50:53;4.20;;;1.40;;